sensor_id;sensor_type;location;lat;lon;timestamp;P1;durP1;ratioP1;P2;durP2;ratioP2
69172;SDS011;56280;49.662;8.408;2023-04-24T00:00:11;4.00;;;1.50;;
69172;SDS011;56280;49.662;8.408;2023-04-24T00:02:39;3.75;;;1.40;;
69172;SDS011;56280;49.662;8.408;2023-04-24T00:05:05;3.40;;;1.40;;
69172;SDS011;56280;49.662;8.408;2023-04-24T00:07:32;4.10;;;1.50;;
69172;SDS011;56280;49.662;8.408;2023-04-24T00:09:57;3.30;;;1.65;;
69172;SDS011;56280;49.662;8.408;2023-04-24T00:12:23;3.58;;;1.60;;
69172;SDS011;56280;49.662;8.408;2023-04-24T00:14:49;3.72;;;1.63;;
69172;SDS011;56280;49.662;8.408;2023-04-24T00:17:14;3.60;;;1.60;;
69172;SDS011;56280;49.662;8.408;2023-04-24T00:19:40;3.80;;;1.70;;
69172;SDS011;56280;49.662;8.408;2023-04-24T00:22:05;5.70;;;1.63;;
69172;SDS011;56280;49.662;8.408;2023-04-24T00:24:30;3.63;;;1.60;;
69172;SDS011;56280;49.662;8.408;2023-04-24T00:26:56;4.37;;;1.40;;
69172;SDS011;56280;49.662;8.408;2023-04-24T00:29:21;4.57;;;1.70;;
69172;SDS011;56280;49.662;8.408;2023-04-24T00:31:46;4.30;;;1.60;;
69172;SDS011;56280;49.662;8.408;2023-04-24T00:34:12;4.07;;;1.45;;
69172;SDS011;56280;49.662;8.408;2023-04-24T00:36:38;3.92;;;1.50;;
69172;SDS011;56280;49.662;8.408;2023-04-24T00:39:03;5.00;;;1.47;;
69172;SDS011;56280;49.662;8.408;2023-04-24T00:41:29;3.43;;;1.50;;
69172;SDS011;56280;49.662;8.408;2023-04-24T00:43:54;3.70;;;1.50;;
69172;SDS011;56280;49.662;8.408;2023-04-24T00:46:20;4.10;;;1.70;;
69172;SDS011;56280;49.662;8.408;2023-04-24T00:48:46;5.65;;;1.70;;
69172;SDS011;56280;49.662;8.408;2023-04-24T00:51:11;5.90;;;1.80;;
69172;SDS011;56280;49.662;8.408;2023-04-24T00:53:37;4.33;;;1.80;;
69172;SDS011;56280;49.662;8.408;2023-04-24T00:56:02;4.80;;;1.90;;
69172;SDS011;56280;49.662;8.408;2023-04-24T00:58:28;3.87;;;1.60;;
69172;SDS011;56280;49.662;8.408;2023-04-24T01:00:53;4.72;;;1.83;;
69172;SDS011;56280;49.662;8.408;2023-04-24T01:03:21;4.50;;;1.75;;
69172;SDS011;56280;49.662;8.408;2023-04-24T01:05:47;4.78;;;1.90;;
69172;SDS011;56280;49.662;8.408;2023-04-24T01:08:14;5.13;;;1.90;;
69172;SDS011;56280;49.662;8.408;2023-04-24T01:10:40;4.32;;;1.77;;
69172;SDS011;56280;49.662;8.408;2023-04-24T01:13:07;4.80;;;2.03;;
69172;SDS011;56280;49.662;8.408;2023-04-24T01:15:33;4.10;;;2.08;;
69172;SDS011;56280;49.662;8.408;2023-04-24T01:17:58;4.40;;;1.77;;
69172;SDS011;56280;49.662;8.408;2023-04-24T01:20:23;6.17;;;1.77;;
69172;SDS011;56280;49.662;8.408;2023-04-24T01:22:51;4.63;;;1.60;;
69172;SDS011;56280;49.662;8.408;2023-04-24T01:25:17;5.20;;;1.90;;
69172;SDS011;56280;49.662;8.408;2023-04-24T01:27:43;3.97;;;1.40;;
69172;SDS011;56280;49.662;8.408;2023-04-24T01:30:08;4.27;;;1.70;;
69172;SDS011;56280;49.662;8.408;2023-04-24T01:32:35;3.85;;;1.48;;
69172;SDS011;56280;49.662;8.408;2023-04-24T01:35:01;4.80;;;1.60;;
69172;SDS011;56280;49.662;8.408;2023-04-24T01:37:27;3.63;;;1.57;;
69172;SDS011;56280;49.662;8.408;2023-04-24T01:39:52;4.10;;;1.60;;
69172;SDS011;56280;49.662;8.408;2023-04-24T01:42:18;3.80;;;1.57;;
69172;SDS011;56280;49.662;8.408;2023-04-24T01:44:43;3.80;;;1.70;;
69172;SDS011;56280;49.662;8.408;2023-04-24T01:47:09;4.95;;;1.63;;
69172;SDS011;56280;49.662;8.408;2023-04-24T01:49:36;4.05;;;1.60;;
69172;SDS011;56280;49.662;8.408;2023-04-24T01:52:03;4.20;;;1.75;;
69172;SDS011;56280;49.662;8.408;2023-04-24T01:54:28;3.20;;;1.45;;
69172;SDS011;56280;49.662;8.408;2023-04-24T01:56:53;4.57;;;1.50;;
69172;SDS011;56280;49.662;8.408;2023-04-24T01:59:18;4.60;;;1.60;;
69172;SDS011;56280;49.662;8.408;2023-04-24T02:01:46;4.05;;;1.50;;
69172;SDS011;56280;49.662;8.408;2023-04-24T02:04:11;4.57;;;1.73;;
69172;SDS011;56280;49.662;8.408;2023-04-24T02:06:37;5.73;;;1.67;;
69172;SDS011;56280;49.662;8.408;2023-04-24T02:09:02;4.73;;;1.70;;
69172;SDS011;56280;49.662;8.408;2023-04-24T02:11:28;4.93;;;1.67;;
69172;SDS011;56280;49.662;8.408;2023-04-24T02:13:53;4.63;;;1.80;;
69172;SDS011;56280;49.662;8.408;2023-04-24T02:16:18;3.60;;;1.60;;
69172;SDS011;56280;49.662;8.408;2023-04-24T02:18:44;4.83;;;1.70;;
69172;SDS011;56280;49.662;8.408;2023-04-24T02:21:09;6.03;;;2.10;;
69172;SDS011;56280;49.662;8.408;2023-04-24T02:23:35;4.05;;;1.70;;
69172;SDS011;56280;49.662;8.408;2023-04-24T02:26:00;5.50;;;2.23;;
69172;SDS011;56280;49.662;8.408;2023-04-24T02:28:26;3.90;;;2.10;;
69172;SDS011;56280;49.662;8.408;2023-04-24T02:30:51;4.93;;;1.90;;
69172;SDS011;56280;49.662;8.408;2023-04-24T02:33:16;4.70;;;1.90;;
69172;SDS011;56280;49.662;8.408;2023-04-24T02:35:42;6.73;;;2.00;;
69172;SDS011;56280;49.662;8.408;2023-04-24T02:38:07;5.17;;;2.07;;
69172;SDS011;56280;49.662;8.408;2023-04-24T02:40:32;4.73;;;2.10;;
69172;SDS011;56280;49.662;8.408;2023-04-24T02:42:57;4.80;;;1.83;;
69172;SDS011;56280;49.662;8.408;2023-04-24T02:45:23;5.87;;;2.07;;
69172;SDS011;56280;49.662;8.408;2023-04-24T02:47:48;4.57;;;2.10;;
69172;SDS011;56280;49.662;8.408;2023-04-24T02:50:13;4.53;;;2.07;;
69172;SDS011;56280;49.662;8.408;2023-04-24T02:52:38;4.07;;;1.90;;
69172;SDS011;56280;49.662;8.408;2023-04-24T02:55:04;5.63;;;2.10;;
69172;SDS011;56280;49.662;8.408;2023-04-24T02:57:30;6.47;;;2.30;;
69172;SDS011;56280;49.662;8.408;2023-04-24T02:59:55;5.32;;;2.22;;
69172;SDS011;56280;49.662;8.408;2023-04-24T03:02:20;4.57;;;2.10;;
69172;SDS011;56280;49.662;8.408;2023-04-24T03:04:46;4.25;;;2.00;;
69172;SDS011;56280;49.662;8.408;2023-04-24T03:07:12;4.72;;;2.00;;
69172;SDS011;56280;49.662;8.408;2023-04-24T03:09:38;4.43;;;1.93;;
69172;SDS011;56280;49.662;8.408;2023-04-24T03:12:04;5.37;;;2.13;;
69172;SDS011;56280;49.662;8.408;2023-04-24T03:14:29;5.10;;;2.07;;
69172;SDS011;56280;49.662;8.408;2023-04-24T03:16:56;5.38;;;2.00;;
69172;SDS011;56280;49.662;8.408;2023-04-24T03:19:21;4.77;;;2.00;;
69172;SDS011;56280;49.662;8.408;2023-04-24T03:21:46;4.80;;;2.10;;
69172;SDS011;56280;49.662;8.408;2023-04-24T03:24:12;3.93;;;2.37;;
69172;SDS011;56280;49.662;8.408;2023-04-24T03:26:37;4.07;;;2.20;;
69172;SDS011;56280;49.662;8.408;2023-04-24T03:29:02;4.70;;;2.27;;
69172;SDS011;56280;49.662;8.408;2023-04-24T03:31:28;3.50;;;2.27;;
69172;SDS011;56280;49.662;8.408;2023-04-24T03:33:53;4.83;;;2.47;;
69172;SDS011;56280;49.662;8.408;2023-04-24T03:36:18;4.30;;;2.37;;
69172;SDS011;56280;49.662;8.408;2023-04-24T03:38:44;5.20;;;2.65;;
69172;SDS011;56280;49.662;8.408;2023-04-24T03:41:10;5.17;;;2.80;;
69172;SDS011;56280;49.662;8.408;2023-04-24T03:43:35;4.30;;;2.80;;
69172;SDS011;56280;49.662;8.408;2023-04-24T03:46:00;4.77;;;3.20;;
69172;SDS011;56280;49.662;8.408;2023-04-24T03:48:26;5.90;;;3.10;;
69172;SDS011;56280;49.662;8.408;2023-04-24T03:50:51;5.00;;;3.47;;
69172;SDS011;56280;49.662;8.408;2023-04-24T03:53:16;4.87;;;3.70;;
69172;SDS011;56280;49.662;8.408;2023-04-24T03:55:42;5.33;;;3.50;;
69172;SDS011;56280;49.662;8.408;2023-04-24T03:58:07;4.60;;;3.60;;
69172;SDS011;56280;49.662;8.408;2023-04-24T04:00:32;5.37;;;3.60;;
69172;SDS011;56280;49.662;8.408;2023-04-24T04:02:59;4.93;;;3.60;;
69172;SDS011;56280;49.662;8.408;2023-04-24T04:05:24;5.93;;;3.80;;
69172;SDS011;56280;49.662;8.408;2023-04-24T04:07:49;6.03;;;3.97;;
69172;SDS011;56280;49.662;8.408;2023-04-24T04:10:15;5.30;;;3.70;;
69172;SDS011;56280;49.662;8.408;2023-04-24T04:12:40;6.17;;;4.13;;
69172;SDS011;56280;49.662;8.408;2023-04-24T04:15:05;5.67;;;3.80;;
69172;SDS011;56280;49.662;8.408;2023-04-24T04:17:32;6.30;;;4.33;;
69172;SDS011;56280;49.662;8.408;2023-04-24T04:19:57;5.03;;;4.20;;
69172;SDS011;56280;49.662;8.408;2023-04-24T04:22:22;6.50;;;4.07;;
69172;SDS011;56280;49.662;8.408;2023-04-24T04:24:48;6.30;;;4.33;;
69172;SDS011;56280;49.662;8.408;2023-04-24T04:27:13;6.53;;;4.20;;
69172;SDS011;56280;49.662;8.408;2023-04-24T04:29:38;6.80;;;4.33;;
69172;SDS011;56280;49.662;8.408;2023-04-24T04:32:05;6.07;;;4.40;;
69172;SDS011;56280;49.662;8.408;2023-04-24T04:34:30;8.23;;;4.85;;
69172;SDS011;56280;49.662;8.408;2023-04-24T04:36:56;6.37;;;5.17;;
69172;SDS011;56280;49.662;8.408;2023-04-24T04:39:24;6.97;;;5.63;;
69172;SDS011;56280;49.662;8.408;2023-04-24T04:41:49;6.70;;;4.87;;
69172;SDS011;56280;49.662;8.408;2023-04-24T04:44:15;6.57;;;5.30;;
69172;SDS011;56280;49.662;8.408;2023-04-24T04:46:40;7.17;;;5.93;;
69172;SDS011;56280;49.662;8.408;2023-04-24T04:49:06;6.90;;;5.45;;
69172;SDS011;56280;49.662;8.408;2023-04-24T04:51:33;8.52;;;5.35;;
69172;SDS011;56280;49.662;8.408;2023-04-24T04:53:59;6.73;;;4.80;;
69172;SDS011;56280;49.662;8.408;2023-04-24T04:56:24;7.70;;;5.38;;
69172;SDS011;56280;49.662;8.408;2023-04-24T04:58:50;8.52;;;4.93;;
69172;SDS011;56280;49.662;8.408;2023-04-24T05:01:15;5.70;;;4.63;;
69172;SDS011;56280;49.662;8.408;2023-04-24T05:03:41;8.13;;;4.90;;
69172;SDS011;56280;49.662;8.408;2023-04-24T05:06:06;7.10;;;4.80;;
69172;SDS011;56280;49.662;8.408;2023-04-24T05:08:31;6.97;;;4.73;;
69172;SDS011;56280;49.662;8.408;2023-04-24T05:10:57;6.77;;;4.80;;
69172;SDS011;56280;49.662;8.408;2023-04-24T05:13:22;6.63;;;4.87;;
69172;SDS011;56280;49.662;8.408;2023-04-24T05:15:47;7.50;;;4.97;;
69172;SDS011;56280;49.662;8.408;2023-04-24T05:18:13;7.50;;;5.20;;
69172;SDS011;56280;49.662;8.408;2023-04-24T05:20:38;6.97;;;4.43;;
69172;SDS011;56280;49.662;8.408;2023-04-24T05:23:03;6.90;;;4.80;;
69172;SDS011;56280;49.662;8.408;2023-04-24T05:25:28;7.23;;;4.80;;
69172;SDS011;56280;49.662;8.408;2023-04-24T05:27:55;6.93;;;4.57;;
69172;SDS011;56280;49.662;8.408;2023-04-24T05:30:20;6.60;;;4.30;;
69172;SDS011;56280;49.662;8.408;2023-04-24T05:32:46;6.53;;;4.53;;
69172;SDS011;56280;49.662;8.408;2023-04-24T05:35:11;5.83;;;4.43;;
69172;SDS011;56280;49.662;8.408;2023-04-24T05:37:36;7.07;;;4.90;;
69172;SDS011;56280;49.662;8.408;2023-04-24T05:40:02;6.27;;;4.20;;
69172;SDS011;56280;49.662;8.408;2023-04-24T05:42:29;6.32;;;4.43;;
69172;SDS011;56280;49.662;8.408;2023-04-24T05:44:54;8.83;;;4.50;;
69172;SDS011;56280;49.662;8.408;2023-04-24T05:47:20;8.03;;;4.60;;
69172;SDS011;56280;49.662;8.408;2023-04-24T05:49:46;9.43;;;5.00;;
69172;SDS011;56280;49.662;8.408;2023-04-24T05:52:12;13.40;;;5.63;;
69172;SDS011;56280;49.662;8.408;2023-04-24T05:54:37;9.70;;;4.83;;
69172;SDS011;56280;49.662;8.408;2023-04-24T05:57:02;20.27;;;7.00;;
69172;SDS011;56280;49.662;8.408;2023-04-24T05:59:32;13.48;;;6.07;;
69172;SDS011;56280;49.662;8.408;2023-04-24T06:01:57;17.42;;;7.20;;
69172;SDS011;56280;49.662;8.408;2023-04-24T06:04:23;9.55;;;5.47;;
69172;SDS011;56280;49.662;8.408;2023-04-24T06:06:48;10.93;;;5.90;;
69172;SDS011;56280;49.662;8.408;2023-04-24T06:09:15;16.90;;;7.20;;
69172;SDS011;56280;49.662;8.408;2023-04-24T06:11:41;11.53;;;6.50;;
69172;SDS011;56280;49.662;8.408;2023-04-24T06:14:07;8.50;;;5.65;;
69172;SDS011;56280;49.662;8.408;2023-04-24T06:16:32;11.23;;;6.40;;
69172;SDS011;56280;49.662;8.408;2023-04-24T06:18:58;9.65;;;6.13;;
69172;SDS011;56280;49.662;8.408;2023-04-24T06:21:23;8.20;;;5.57;;
69172;SDS011;56280;49.662;8.408;2023-04-24T06:23:48;7.90;;;5.30;;
69172;SDS011;56280;49.662;8.408;2023-04-24T06:26:14;8.23;;;5.70;;
69172;SDS011;56280;49.662;8.408;2023-04-24T06:28:40;7.60;;;5.63;;
69172;SDS011;56280;49.662;8.408;2023-04-24T06:31:05;9.23;;;5.60;;
69172;SDS011;56280;49.662;8.408;2023-04-24T06:33:30;8.93;;;5.50;;
69172;SDS011;56280;49.662;8.408;2023-04-24T06:35:55;9.73;;;5.57;;
69172;SDS011;56280;49.662;8.408;2023-04-24T06:38:21;8.30;;;5.80;;
69172;SDS011;56280;49.662;8.408;2023-04-24T06:40:46;7.80;;;5.93;;
69172;SDS011;56280;49.662;8.408;2023-04-24T06:43:11;8.87;;;5.97;;
69172;SDS011;56280;49.662;8.408;2023-04-24T06:45:37;8.17;;;5.87;;
69172;SDS011;56280;49.662;8.408;2023-04-24T06:48:04;8.40;;;5.57;;
69172;SDS011;56280;49.662;8.408;2023-04-24T06:50:29;9.93;;;5.80;;
69172;SDS011;56280;49.662;8.408;2023-04-24T06:52:55;7.63;;;5.67;;
69172;SDS011;56280;49.662;8.408;2023-04-24T06:55:20;11.03;;;6.00;;
69172;SDS011;56280;49.662;8.408;2023-04-24T06:57:45;8.37;;;5.13;;
69172;SDS011;56280;49.662;8.408;2023-04-24T07:00:11;6.57;;;4.80;;
69172;SDS011;56280;49.662;8.408;2023-04-24T07:02:37;6.18;;;4.30;;
69172;SDS011;56280;49.662;8.408;2023-04-24T07:05:02;6.20;;;4.20;;
69172;SDS011;56280;49.662;8.408;2023-04-24T07:07:28;6.43;;;4.28;;
69172;SDS011;56280;49.662;8.408;2023-04-24T07:09:54;7.87;;;4.20;;
69172;SDS011;56280;49.662;8.408;2023-04-24T07:12:21;5.10;;;3.80;;
69172;SDS011;56280;49.662;8.408;2023-04-24T07:14:46;5.90;;;4.00;;
69172;SDS011;56280;49.662;8.408;2023-04-24T07:17:12;5.60;;;4.00;;
69172;SDS011;56280;49.662;8.408;2023-04-24T07:19:38;6.13;;;4.07;;
69172;SDS011;56280;49.662;8.408;2023-04-24T07:22:03;7.15;;;4.53;;
69172;SDS011;56280;49.662;8.408;2023-04-24T07:24:29;5.63;;;3.80;;
69172;SDS011;56280;49.662;8.408;2023-04-24T07:26:54;6.22;;;3.70;;
69172;SDS011;56280;49.662;8.408;2023-04-24T07:29:20;6.70;;;3.50;;
69172;SDS011;56280;49.662;8.408;2023-04-24T07:31:45;5.65;;;3.30;;
69172;SDS011;56280;49.662;8.408;2023-04-24T07:34:11;4.57;;;2.95;;
69172;SDS011;56280;49.662;8.408;2023-04-24T07:36:37;5.10;;;2.60;;
69172;SDS011;56280;49.662;8.408;2023-04-24T07:39:03;4.30;;;2.35;;
69172;SDS011;56280;49.662;8.408;2023-04-24T07:41:29;4.72;;;2.25;;
69172;SDS011;56280;49.662;8.408;2023-04-24T07:43:55;5.40;;;2.40;;
69172;SDS011;56280;49.662;8.408;2023-04-24T07:46:21;4.30;;;2.30;;
69172;SDS011;56280;49.662;8.408;2023-04-24T07:48:46;4.73;;;2.50;;
69172;SDS011;56280;49.662;8.408;2023-04-24T07:51:13;4.30;;;2.35;;
69172;SDS011;56280;49.662;8.408;2023-04-24T07:53:42;3.93;;;2.50;;
69172;SDS011;56280;49.662;8.408;2023-04-24T07:56:08;5.23;;;2.73;;
69172;SDS011;56280;49.662;8.408;2023-04-24T07:58:33;4.45;;;2.63;;
69172;SDS011;56280;49.662;8.408;2023-04-24T08:01:01;4.63;;;2.70;;
69172;SDS011;56280;49.662;8.408;2023-04-24T08:03:26;4.57;;;2.90;;
69172;SDS011;56280;49.662;8.408;2023-04-24T08:05:52;5.03;;;2.90;;
69172;SDS011;56280;49.662;8.408;2023-04-24T08:08:21;8.00;;;3.03;;
69172;SDS011;56280;49.662;8.408;2023-04-24T08:10:47;4.40;;;2.90;;
69172;SDS011;56280;49.662;8.408;2023-04-24T08:13:13;4.30;;;2.70;;
69172;SDS011;56280;49.662;8.408;2023-04-24T08:15:38;4.73;;;3.00;;
69172;SDS011;56280;49.662;8.408;2023-04-24T08:18:03;5.30;;;2.87;;
69172;SDS011;56280;49.662;8.408;2023-04-24T08:20:29;9.27;;;3.10;;
69172;SDS011;56280;49.662;8.408;2023-04-24T08:22:54;4.55;;;2.60;;
69172;SDS011;56280;49.662;8.408;2023-04-24T08:25:21;4.07;;;2.70;;
69172;SDS011;56280;49.662;8.408;2023-04-24T08:27:48;4.32;;;3.00;;
69172;SDS011;56280;49.662;8.408;2023-04-24T08:30:13;4.27;;;3.10;;
69172;SDS011;56280;49.662;8.408;2023-04-24T08:32:38;4.53;;;3.20;;
69172;SDS011;56280;49.662;8.408;2023-04-24T08:35:04;4.80;;;3.10;;
69172;SDS011;56280;49.662;8.408;2023-04-24T08:37:29;4.33;;;3.00;;
69172;SDS011;56280;49.662;8.408;2023-04-24T08:39:55;4.88;;;3.38;;
69172;SDS011;56280;49.662;8.408;2023-04-24T08:42:21;4.70;;;3.40;;
69172;SDS011;56280;49.662;8.408;2023-04-24T08:44:48;5.90;;;3.97;;
69172;SDS011;56280;49.662;8.408;2023-04-24T08:47:14;4.75;;;3.58;;
69172;SDS011;56280;49.662;8.408;2023-04-24T08:49:40;5.28;;;3.50;;
69172;SDS011;56280;49.662;8.408;2023-04-24T08:52:07;4.75;;;3.38;;
69172;SDS011;56280;49.662;8.408;2023-04-24T08:54:33;4.43;;;3.57;;
69172;SDS011;56280;49.662;8.408;2023-04-24T08:57:01;5.90;;;3.85;;
69172;SDS011;56280;49.662;8.408;2023-04-24T08:59:28;6.22;;;4.00;;
69172;SDS011;56280;49.662;8.408;2023-04-24T09:01:54;5.47;;;4.05;;
69172;SDS011;56280;49.662;8.408;2023-04-24T09:04:21;5.90;;;4.05;;
69172;SDS011;56280;49.662;8.408;2023-04-24T09:06:49;6.25;;;4.30;;
69172;SDS011;56280;49.662;8.408;2023-04-24T09:09:16;6.80;;;4.00;;
69172;SDS011;56280;49.662;8.408;2023-04-24T09:11:42;6.85;;;4.20;;
69172;SDS011;56280;49.662;8.408;2023-04-24T09:14:09;5.07;;;3.70;;
69172;SDS011;56280;49.662;8.408;2023-04-24T09:16:34;5.72;;;3.70;;
69172;SDS011;56280;49.662;8.408;2023-04-24T09:19:00;5.50;;;3.77;;
69172;SDS011;56280;49.662;8.408;2023-04-24T09:21:26;6.67;;;3.97;;
69172;SDS011;56280;49.662;8.408;2023-04-24T09:24:02;5.85;;;3.92;;
69172;SDS011;56280;49.662;8.408;2023-04-24T09:26:29;6.32;;;4.10;;
69172;SDS011;56280;49.662;8.408;2023-04-24T09:28:56;5.70;;;4.20;;
69172;SDS011;56280;49.662;8.408;2023-04-24T09:31:22;6.20;;;4.00;;
69172;SDS011;56280;49.662;8.408;2023-04-24T09:34:05;5.28;;;3.70;;
69172;SDS011;56280;49.662;8.408;2023-04-24T09:36:31;5.47;;;3.80;;
69172;SDS011;56280;49.662;8.408;2023-04-24T09:38:59;5.40;;;3.38;;
69172;SDS011;56280;49.662;8.408;2023-04-24T09:41:28;5.77;;;3.50;;
69172;SDS011;56280;49.662;8.408;2023-04-24T09:43:56;5.18;;;3.30;;
69172;SDS011;56280;49.662;8.408;2023-04-24T09:46:28;4.80;;;3.25;;
69172;SDS011;56280;49.662;8.408;2023-04-24T09:48:56;4.80;;;2.97;;
69172;SDS011;56280;49.662;8.408;2023-04-24T09:51:34;4.87;;;2.80;;
69172;SDS011;56280;49.662;8.408;2023-04-24T09:54:01;5.20;;;2.42;;
69172;SDS011;56280;49.662;8.408;2023-04-24T09:56:29;5.28;;;2.85;;
69172;SDS011;56280;49.662;8.408;2023-04-24T09:59:03;4.55;;;3.10;;
69172;SDS011;56280;49.662;8.408;2023-04-24T10:01:33;4.68;;;3.05;;
69172;SDS011;56280;49.662;8.408;2023-04-24T10:03:58;4.05;;;2.72;;
69172;SDS011;56280;49.662;8.408;2023-04-24T10:06:29;6.57;;;2.93;;
69172;SDS011;56280;49.662;8.408;2023-04-24T10:08:57;5.13;;;3.22;;
69172;SDS011;56280;49.662;8.408;2023-04-24T10:11:23;5.00;;;3.10;;
69172;SDS011;56280;49.662;8.408;2023-04-24T10:13:51;5.18;;;3.22;;
69172;SDS011;56280;49.662;8.408;2023-04-24T10:16:17;6.05;;;3.28;;
69172;SDS011;56280;49.662;8.408;2023-04-24T10:18:43;5.30;;;2.95;;
69172;SDS011;56280;49.662;8.408;2023-04-24T10:21:09;4.17;;;3.13;;
69172;SDS011;56280;49.662;8.408;2023-04-24T10:23:35;4.97;;;2.97;;
69172;SDS011;56280;49.662;8.408;2023-04-24T10:26:00;4.97;;;3.03;;
69172;SDS011;56280;49.662;8.408;2023-04-24T10:28:26;4.97;;;2.93;;
69172;SDS011;56280;49.662;8.408;2023-04-24T10:30:53;4.83;;;3.10;;
69172;SDS011;56280;49.662;8.408;2023-04-24T10:33:20;6.13;;;3.15;;
69172;SDS011;56280;49.662;8.408;2023-04-24T10:35:48;4.40;;;3.00;;
69172;SDS011;56280;49.662;8.408;2023-04-24T10:38:16;5.60;;;3.00;;
69172;SDS011;56280;49.662;8.408;2023-04-24T10:40:49;6.00;;;3.08;;
69172;SDS011;56280;49.662;8.408;2023-04-24T10:43:16;4.60;;;2.87;;
69172;SDS011;56280;49.662;8.408;2023-04-24T10:45:42;5.18;;;3.25;;
69172;SDS011;56280;49.662;8.408;2023-04-24T10:48:28;4.90;;;3.03;;
69172;SDS011;56280;49.662;8.408;2023-04-24T10:50:54;6.30;;;3.42;;
69172;SDS011;56280;49.662;8.408;2023-04-24T10:53:20;4.63;;;3.20;;
69172;SDS011;56280;49.662;8.408;2023-04-24T10:58:21;5.05;;;3.55;;
69172;SDS011;56280;49.662;8.408;2023-04-24T11:00:57;4.95;;;3.20;;
69172;SDS011;56280;49.662;8.408;2023-04-24T11:03:25;5.53;;;3.07;;
69172;SDS011;56280;49.662;8.408;2023-04-24T11:06:05;5.90;;;3.38;;
69172;SDS011;56280;49.662;8.408;2023-04-24T11:08:44;4.43;;;3.23;;
69172;SDS011;56280;49.662;8.408;2023-04-24T11:11:11;5.00;;;3.22;;
69172;SDS011;56280;49.662;8.408;2023-04-24T11:14:13;4.50;;;2.97;;
69172;SDS011;56280;49.662;8.408;2023-04-24T11:37:42;6.20;;;4.10;;
69172;SDS011;56280;49.662;8.408;2023-04-24T11:40:14;5.82;;;4.05;;
69172;SDS011;56280;49.662;8.408;2023-04-24T11:42:43;15.30;;;11.97;;
69172;SDS011;56280;49.662;8.408;2023-04-24T11:45:10;7.35;;;4.53;;
69172;SDS011;56280;49.662;8.408;2023-04-24T11:47:43;5.88;;;4.32;;
69172;SDS011;56280;49.662;8.408;2023-04-24T11:50:10;6.25;;;4.22;;
69172;SDS011;56280;49.662;8.408;2023-04-24T11:52:38;6.43;;;4.10;;
69172;SDS011;56280;49.662;8.408;2023-04-24T11:55:06;6.50;;;4.25;;
69172;SDS011;56280;49.662;8.408;2023-04-24T11:57:33;7.13;;;4.18;;
69172;SDS011;56280;49.662;8.408;2023-04-24T11:59:59;6.13;;;4.13;;
69172;SDS011;56280;49.662;8.408;2023-04-24T12:02:26;7.15;;;4.10;;
69172;SDS011;56280;49.662;8.408;2023-04-24T12:04:55;7.88;;;4.07;;
69172;SDS011;56280;49.662;8.408;2023-04-24T12:07:21;6.75;;;4.07;;
69172;SDS011;56280;49.662;8.408;2023-04-24T12:09:49;5.97;;;4.10;;
69172;SDS011;56280;49.662;8.408;2023-04-24T12:12:20;7.55;;;4.13;;
69172;SDS011;56280;49.662;8.408;2023-04-24T12:14:49;6.40;;;4.03;;
69172;SDS011;56280;49.662;8.408;2023-04-24T12:17:15;8.68;;;4.30;;
69172;SDS011;56280;49.662;8.408;2023-04-24T12:19:45;7.03;;;4.00;;
69172;SDS011;56280;49.662;8.408;2023-04-24T12:22:11;7.60;;;4.10;;
69172;SDS011;56280;49.662;8.408;2023-04-24T12:24:55;6.40;;;4.23;;
69172;SDS011;56280;49.662;8.408;2023-04-24T12:27:33;5.82;;;3.80;;
69172;SDS011;56280;49.662;8.408;2023-04-24T12:29:59;6.57;;;3.90;;
69172;SDS011;56280;49.662;8.408;2023-04-24T12:32:26;7.10;;;4.00;;
69172;SDS011;56280;49.662;8.408;2023-04-24T12:34:52;7.70;;;3.93;;
69172;SDS011;56280;49.662;8.408;2023-04-24T12:37:19;6.25;;;3.97;;
69172;SDS011;56280;49.662;8.408;2023-04-24T12:39:57;6.80;;;4.30;;
69172;SDS011;56280;49.662;8.408;2023-04-24T12:42:28;6.53;;;4.03;;
69172;SDS011;56280;49.662;8.408;2023-04-24T12:44:58;6.33;;;4.03;;
69172;SDS011;56280;49.662;8.408;2023-04-24T12:47:25;6.97;;;4.20;;
69172;SDS011;56280;49.662;8.408;2023-04-24T12:49:50;6.72;;;4.30;;
69172;SDS011;56280;49.662;8.408;2023-04-24T12:52:17;6.45;;;3.70;;
69172;SDS011;56280;49.662;8.408;2023-04-24T12:54:44;6.93;;;3.90;;
69172;SDS011;56280;49.662;8.408;2023-04-24T12:57:10;8.00;;;4.20;;
69172;SDS011;56280;49.662;8.408;2023-04-24T12:59:35;7.23;;;4.10;;
69172;SDS011;56280;49.662;8.408;2023-04-24T13:02:00;7.37;;;4.77;;
69172;SDS011;56280;49.662;8.408;2023-04-24T13:04:25;7.67;;;4.60;;
69172;SDS011;56280;49.662;8.408;2023-04-24T13:06:51;7.13;;;4.57;;
69172;SDS011;56280;49.662;8.408;2023-04-24T13:09:16;6.80;;;4.03;;
69172;SDS011;56280;49.662;8.408;2023-04-24T13:11:41;6.03;;;4.53;;
69172;SDS011;56280;49.662;8.408;2023-04-24T13:14:06;7.97;;;4.70;;
69172;SDS011;56280;49.662;8.408;2023-04-24T13:16:32;8.10;;;4.30;;
69172;SDS011;56280;49.662;8.408;2023-04-24T13:18:57;6.78;;;4.00;;
69172;SDS011;56280;49.662;8.408;2023-04-24T13:21:22;6.28;;;4.10;;
69172;SDS011;56280;49.662;8.408;2023-04-24T13:23:48;6.47;;;3.90;;
69172;SDS011;56280;49.662;8.408;2023-04-24T13:26:13;5.73;;;3.90;;
69172;SDS011;56280;49.662;8.408;2023-04-24T13:28:38;5.87;;;3.73;;
69172;SDS011;56280;49.662;8.408;2023-04-24T13:31:03;6.83;;;3.77;;
69172;SDS011;56280;49.662;8.408;2023-04-24T13:33:29;5.83;;;3.40;;
69172;SDS011;56280;49.662;8.408;2023-04-24T13:35:54;5.47;;;3.60;;
69172;SDS011;56280;49.662;8.408;2023-04-24T13:38:19;6.27;;;3.70;;
69172;SDS011;56280;49.662;8.408;2023-04-24T13:40:46;5.82;;;3.78;;
69172;SDS011;56280;49.662;8.408;2023-04-24T13:43:11;6.45;;;3.50;;
69172;SDS011;56280;49.662;8.408;2023-04-24T13:45:37;8.65;;;5.25;;
69172;SDS011;56280;49.662;8.408;2023-04-24T13:48:02;7.37;;;4.07;;
69172;SDS011;56280;49.662;8.408;2023-04-24T13:50:28;6.43;;;4.10;;
69172;SDS011;56280;49.662;8.408;2023-04-24T13:52:53;7.80;;;4.10;;
69172;SDS011;56280;49.662;8.408;2023-04-24T13:55:19;5.17;;;3.30;;
69172;SDS011;56280;49.662;8.408;2023-04-24T13:57:44;5.97;;;3.45;;
69172;SDS011;56280;49.662;8.408;2023-04-24T14:00:10;5.13;;;3.30;;
69172;SDS011;56280;49.662;8.408;2023-04-24T14:02:36;5.43;;;3.30;;
69172;SDS011;56280;49.662;8.408;2023-04-24T14:05:01;5.70;;;3.53;;
69172;SDS011;56280;49.662;8.408;2023-04-24T14:07:28;5.80;;;3.20;;
69172;SDS011;56280;49.662;8.408;2023-04-24T14:09:53;5.67;;;3.30;;
69172;SDS011;56280;49.662;8.408;2023-04-24T14:12:19;5.00;;;3.27;;
69172;SDS011;56280;49.662;8.408;2023-04-24T14:14:46;6.87;;;3.50;;
69172;SDS011;56280;49.662;8.408;2023-04-24T14:17:12;6.40;;;3.70;;
69172;SDS011;56280;49.662;8.408;2023-04-24T14:19:38;6.03;;;3.53;;
69172;SDS011;56280;49.662;8.408;2023-04-24T14:22:03;6.33;;;3.60;;
69172;SDS011;56280;49.662;8.408;2023-04-24T14:24:28;5.97;;;3.70;;
69172;SDS011;56280;49.662;8.408;2023-04-24T14:26:54;5.33;;;3.53;;
69172;SDS011;56280;49.662;8.408;2023-04-24T14:29:19;6.00;;;3.83;;
69172;SDS011;56280;49.662;8.408;2023-04-24T14:31:44;7.00;;;3.70;;
69172;SDS011;56280;49.662;8.408;2023-04-24T14:34:10;7.93;;;4.20;;
69172;SDS011;56280;49.662;8.408;2023-04-24T14:36:36;6.28;;;3.88;;
69172;SDS011;56280;49.662;8.408;2023-04-24T14:39:01;5.73;;;4.00;;
69172;SDS011;56280;49.662;8.408;2023-04-24T14:41:31;6.55;;;3.92;;
69172;SDS011;56280;49.662;8.408;2023-04-24T14:43:56;6.63;;;4.20;;
69172;SDS011;56280;49.662;8.408;2023-04-24T14:46:21;6.30;;;4.00;;
69172;SDS011;56280;49.662;8.408;2023-04-24T14:48:47;5.80;;;3.80;;
69172;SDS011;56280;49.662;8.408;2023-04-24T14:51:12;5.97;;;3.73;;
69172;SDS011;56280;49.662;8.408;2023-04-24T14:53:37;5.73;;;3.67;;
69172;SDS011;56280;49.662;8.408;2023-04-24T14:56:02;5.90;;;3.83;;
69172;SDS011;56280;49.662;8.408;2023-04-24T14:58:28;7.17;;;4.00;;
69172;SDS011;56280;49.662;8.408;2023-04-24T15:00:53;5.50;;;3.73;;
69172;SDS011;56280;49.662;8.408;2023-04-24T15:03:19;4.90;;;3.57;;
69172;SDS011;56280;49.662;8.408;2023-04-24T15:05:46;5.90;;;3.70;;